Time;durP1;ratioP1;P1;durP2;ratioP2;P2;SDS_P1;SDS_P2;PMS_P1;PMS_P2;Temp;Humidity;BMP_temperature;BMP_pressure;BME280_temperature;BME280_humidity;BME280_pressure;Samples;Min_cycle;Max_cycle;Signal;HPM_P1;HPM_P2
2023/10/24 00:01:39;;;;;;;5.87;2.63;;;12.30;99.90;;;10.83;100.00;99852.78;10310512;28;98112;-83
2023/10/24 00:06:43;;;;;;;7.57;3.40;;;12.30;99.90;;;10.78;100.00;99851.66;10347636;28;96696;-83
2023/10/24 00:11:46;;;;;;;4.93;2.93;;;12.30;99.90;;;10.75;100.00;99850.22;10322099;28;96595;-83
2023/10/24 00:16:50;;;;;;;6.13;3.00;;;12.20;99.90;;;10.72;100.00;99843.41;10312094;28;98395;-83
2023/10/24 00:21:54;;;;;;;4.83;3.50;;;12.10;99.90;;;10.68;100.00;99817.38;10298198;28;97255;-83
2023/10/24 00:26:58;;;;;;;7.70;2.93;;;12.10;99.90;;;10.65;100.00;99825.69;10302265;28;96702;-83
2023/10/24 00:32:02;;;;;;;6.43;2.67;;;12.10;99.90;;;10.64;100.00;99808.09;10318353;28;97526;-83
2023/10/24 00:37:07;;;;;;;4.83;2.67;;;12.10;99.90;;;10.62;100.00;99799.50;10306157;28;96778;-83
2023/10/24 00:42:12;;;;;;;5.30;2.80;;;12.10;99.90;;;10.58;100.00;99784.91;10295161;28;96918;-83
2023/10/24 00:47:15;;;;;;;4.53;2.30;;;12.00;99.90;;;10.53;100.00;99779.28;10327694;28;98047;-83
2023/10/24 00:52:20;;;;;;;3.77;2.50;;;12.00;99.90;;;10.48;100.00;99779.00;10316329;28;96594;-83
2023/10/24 00:57:25;;;;;;;4.23;2.57;;;11.90;99.90;;;10.42;100.00;99777.88;10304775;28;97065;-82
2023/10/24 01:02:29;;;;;;;3.63;2.17;;;11.90;99.90;;;10.42;100.00;99788.50;10299328;28;97842;-82
2023/10/24 01:07:34;;;;;;;3.60;2.10;;;11.90;99.90;;;10.41;100.00;99803.59;10334093;28;98003;-83
2023/10/24 01:12:39;;;;;;;4.70;2.37;;;11.80;99.90;;;10.40;100.00;99817.91;10304646;28;96806;-83
2023/10/24 01:17:50;;;;;;;6.17;2.10;;;11.90;99.90;;;10.42;100.00;99807.09;10313289;28;97349;-83
2023/10/24 01:22:54;;;;;;;6.80;2.27;;;11.90;99.90;;;10.45;100.00;99810.22;10311321;28;96447;-83
2023/10/24 01:28:00;;;;;;;4.83;2.50;;;11.90;99.90;;;10.49;100.00;99808.03;10324521;28;96604;-83
2023/10/24 01:33:04;;;;;;;4.20;2.30;;;12.00;99.90;;;10.49;100.00;99796.56;10301611;28;97359;-83
2023/10/24 01:38:09;;;;;;;6.73;2.50;;;12.00;99.90;;;10.47;100.00;99786.13;10321444;28;97337;-83
2023/10/24 01:43:13;;;;;;;3.30;2.00;;;12.00;99.90;;;10.48;100.00;99784.31;10302419;28;98149;-83
2023/10/24 01:48:17;;;;;;;4.60;2.50;;;12.00;99.90;;;10.43;100.00;99788.34;10321210;28;96713;-83
2023/10/24 01:53:22;;;;;;;3.63;2.00;;;11.90;99.90;;;10.42;100.00;99791.16;10335511;28;96688;-83
2023/10/24 01:58:26;;;;;;;3.70;2.03;;;12.00;99.90;;;10.39;100.00;99787.03;10325879;28;97913;-82
2023/10/24 02:03:29;;;;;;;5.83;2.20;;;11.90;99.90;;;10.37;100.00;99789.00;10301177;28;97503;-83
2023/10/24 02:08:34;;;;;;;3.53;2.07;;;11.90;99.90;;;10.30;100.00;99782.75;10313917;28;98223;-83
2023/10/24 02:13:38;;;;;;;4.50;2.40;;;11.80;99.90;;;10.22;100.00;99779.31;10312007;28;96660;-83
2023/10/24 02:18:41;;;;;;;4.87;2.43;;;11.70;99.90;;;10.12;100.00;99763.59;10329601;28;96646;-83
2023/10/24 02:23:45;;;;;;;3.37;2.10;;;11.60;99.90;;;10.04;100.00;99759.16;10277076;28;96475;-83
2023/10/24 02:28:48;;;;;;;3.70;1.93;;;11.50;99.90;;;9.96;100.00;99771.66;10305429;28;98112;-83
2023/10/24 02:33:52;;;;;;;7.13;2.27;;;11.50;99.90;;;9.90;100.00;99771.38;10328697;28;96597;-83
2023/10/24 02:38:56;;;;;;;4.93;2.23;;;11.40;99.90;;;9.90;100.00;99779.31;10328085;28;96644;-83
2023/10/24 02:44:00;;;;;;;4.33;2.40;;;11.40;99.90;;;9.89;100.00;99776.81;10323174;28;96599;-83
2023/10/24 02:49:03;;;;;;;4.83;2.37;;;11.40;99.90;;;9.86;100.00;99758.59;10315421;28;96647;-83
2023/10/24 02:54:07;;;;;;;4.10;2.33;;;11.30;99.90;;;9.85;100.00;99752.47;10309573;28;96881;-83
2023/10/24 02:59:12;;;;;;;6.40;2.83;;;11.40;99.90;;;9.88;100.00;99744.16;10311636;28;96806;-83
2023/10/24 03:04:16;;;;;;;5.33;2.47;;;11.30;99.90;;;9.90;100.00;99722.75;10324152;28;97035;-83
2023/10/24 03:09:20;;;;;;;4.20;2.70;;;11.40;99.90;;;9.96;100.00;99689.38;10303915;28;96594;-83
2023/10/24 03:14:23;;;;;;;4.03;2.40;;;11.50;99.90;;;10.00;100.00;99709.25;10356220;28;96624;-83
2023/10/24 03:19:27;;;;;;;5.30;2.70;;;11.50;99.90;;;10.05;100.00;99698.94;10324199;28;96962;-83
2023/10/24 03:24:31;;;;;;;5.23;2.37;;;11.50;99.90;;;10.04;100.00;99710.56;10299575;28;96436;-83
2023/10/24 03:29:35;;;;;;;5.17;2.90;;;11.50;99.90;;;10.04;100.00;99707.91;10308924;28;97192;-83
2023/10/24 03:34:39;;;;;;;4.60;1.97;;;11.50;99.90;;;9.98;100.00;99703.31;10298809;28;97348;-83
2023/10/24 03:39:43;;;;;;;5.47;2.80;;;11.50;99.90;;;9.95;100.00;99724.88;10341026;28;96598;-83
2023/10/24 03:44:47;;;;;;;9.50;4.70;;;11.50;99.90;;;9.87;100.00;99723.91;10314085;28;98485;-83
2023/10/24 03:49:51;;;;;;;5.10;3.10;;;11.40;99.90;;;9.82;100.00;99728.94;10333201;28;97572;-83
2023/10/24 03:54:55;;;;;;;9.93;3.80;;;11.30;99.90;;;9.80;100.00;99728.28;10316280;28;96595;-83
2023/10/24 03:59:58;;;;;;;9.23;4.93;;;11.30;99.90;;;9.81;100.00;99721.97;10331166;28;96628;-83
2023/10/24 04:05:06;;;;;;;10.10;4.40;;;11.30;99.90;;;9.78;100.00;99698.44;10308449;28;96710;-83
2023/10/24 04:10:13;;;;;;;4.37;2.30;;;11.30;99.90;;;9.70;100.00;99709.09;10321297;28;96524;-84
2023/10/24 04:15:16;;;;;;;12.27;4.00;;;11.20;99.90;;;9.61;100.00;99702.19;10356709;28;98246;-83
2023/10/24 04:20:21;;;;;;;11.97;5.53;;;11.10;99.90;;;9.54;100.00;99707.38;10328877;28;96990;-84
2023/10/24 04:25:26;;;;;;;9.57;4.50;;;11.10;99.90;;;9.51;100.00;99704.22;10326020;28;96615;-84
2023/10/24 04:30:30;;;;;;;5.13;3.10;;;11.10;99.90;;;9.43;100.00;99709.56;10321095;28;98307;-84
2023/10/24 04:35:41;;;;;;;4.83;2.63;;;11.00;99.90;;;9.30;100.00;99716.25;10312814;28;98686;-84
2023/10/24 04:40:45;;;;;;;4.13;2.53;;;10.90;99.90;;;9.22;100.00;99737.47;10276792;28;96486;-84
2023/10/24 04:45:52;;;;;;;6.47;2.63;;;10.70;99.90;;;9.12;100.00;99723.59;10341968;28;98042;-84
2023/10/24 04:50:56;;;;;;;4.57;2.47;;;10.60;99.90;;;9.04;100.00;99735.03;10328283;28;99356;-83
2023/10/24 04:55:59;;;;;;;8.93;3.00;;;10.50;99.90;;;8.98;100.00;99716.31;10324652;28;98487;-83
2023/10/24 05:01:03;;;;;;;6.37;3.40;;;10.50;99.90;;;8.94;100.00;99699.97;10348817;28;98035;-83
2023/10/24 05:06:07;;;;;;;8.30;3.77;;;10.50;99.90;;;8.95;100.00;99703.44;10299416;28;99508;-84
2023/10/24 05:11:11;;;;;;;6.90;4.03;;;10.50;99.90;;;8.94;100.00;99704.44;10356679;28;96589;-83
2023/10/24 05:16:15;;;;;;;7.60;3.77;;;10.50;99.90;;;8.92;100.00;99706.41;10336627;28;96631;-83
2023/10/24 05:21:19;;;;;;;8.40;4.60;;;10.50;99.90;;;8.91;100.00;99702.09;10308558;28;96672;-84
2023/10/24 05:26:22;;;;;;;14.80;4.33;;;10.50;99.90;;;8.88;100.00;99705.09;10294149;28;97489;-84
2023/10/24 05:31:26;;;;;;;11.93;5.03;;;10.40;99.90;;;8.87;100.00;99709.56;10317338;28;98726;-84
2023/10/24 05:36:30;;;;;;;7.43;4.37;;;10.40;99.90;;;8.83;100.00;99711.72;10339864;28;97830;-84
2023/10/24 05:41:33;;;;;;;7.40;4.27;;;10.40;99.90;;;8.80;100.00;99711.22;10351133;28;96742;-83
2023/10/24 05:46:37;;;;;;;10.73;6.60;;;10.30;99.90;;;8.79;100.00;99720.19;10330328;28;97919;-84
2023/10/24 05:51:41;;;;;;;7.20;4.40;;;10.30;99.90;;;8.79;100.00;99702.44;10306850;28;96734;-84
2023/10/24 05:56:45;;;;;;;7.20;4.00;;;10.30;99.90;;;8.84;100.00;99710.72;10325952;28;96512;-84
2023/10/24 06:01:48;;;;;;;6.20;3.93;;;10.30;99.90;;;8.90;100.00;99709.22;10331093;28;97333;-83
2023/10/24 06:06:54;;;;;;;10.80;4.67;;;10.40;99.90;;;9.03;100.00;99714.81;10348913;28;97018;-84
2023/10/24 06:11:57;;;;;;;5.00;3.80;;;10.50;99.90;;;9.18;100.00;99717.63;10302529;28;96616;-84
2023/10/24 06:17:01;;;;;;;5.93;3.13;;;10.70;99.90;;;9.33;100.00;99702.63;10296476;28;98454;-84
2023/10/24 06:22:06;;;;;;;5.47;3.20;;;10.80;99.90;;;9.55;100.00;99718.78;10291805;28;96812;-84
2023/10/24 06:27:10;;;;;;;8.50;3.20;;;11.00;99.90;;;9.77;100.00;99723.31;10349574;28;96510;-84
2023/10/24 06:32:14;;;;;;;5.73;3.50;;;11.30;99.90;;;10.01;100.00;99709.06;10349238;28;97529;-84
2023/10/24 06:37:19;;;;;;;5.90;3.80;;;11.50;99.90;;;10.26;100.00;99715.09;10326520;28;98774;-85
2023/10/24 06:42:24;;;;;;;7.03;3.77;;;11.80;99.90;;;10.54;100.00;99709.19;10345092;28;96938;-84
2023/10/24 06:47:28;;;;;;;6.93;3.80;;;12.00;99.90;;;10.71;100.00;99718.69;10319888;28;98243;-84
2023/10/24 06:52:31;;;;;;;7.17;3.57;;;12.20;99.90;;;10.93;100.00;99707.19;10343376;28;96593;-84
2023/10/24 06:57:35;;;;;;;7.20;3.43;;;12.40;99.90;;;11.11;100.00;99703.34;10334172;28;96395;-84
2023/10/24 07:02:39;;;;;;;4.70;2.90;;;12.60;99.90;;;11.25;100.00;99699.84;10289998;28;97900;-84
2023/10/24 07:07:43;;;;;;;8.10;3.67;;;12.80;99.90;;;11.38;100.00;99680.56;10337741;28;97174;-84
2023/10/24 07:12:47;;;;;;;6.60;3.80;;;12.90;99.90;;;11.53;100.00;99689.34;10314556;28;96565;-84
2023/10/24 07:17:51;;;;;;;5.90;3.70;;;13.00;99.90;;;11.89;100.00;99667.28;10325834;28;96588;-85
2023/10/24 07:22:56;;;;;;;7.73;3.57;;;13.20;99.90;;;12.43;100.00;99686.22;10290937;28;96531;-84
2023/10/24 07:28:00;;;;;;;5.63;3.20;;;13.50;99.90;;;12.84;100.00;99683.66;10304869;28;96653;-84
2023/10/24 07:33:04;;;;;;;6.35;3.75;;;13.90;99.90;;;13.07;100.00;99698.56;10342249;28;98165;-84
2023/10/24 07:38:08;;;;;;;4.57;3.40;;;14.10;99.90;;;13.12;100.00;99672.13;10327113;28;96636;-84
2023/10/24 07:43:11;;;;;;;6.57;3.03;;;14.30;99.90;;;13.16;100.00;99659.22;10324310;28;96760;-84
2023/10/24 07:48:15;;;;;;;5.55;3.50;;;14.40;99.90;;;13.27;100.00;99661.34;10321463;28;97955;-85
2023/10/24 07:53:24;;;;;;;5.15;3.05;;;14.50;99.90;;;13.42;100.00;99661.22;10340746;28;96993;-84
2023/10/24 07:58:29;;;;;;;6.38;3.20;;;14.70;99.90;;;13.45;100.00;99658.97;10327110;28;96759;-85
2023/10/24 08:03:33;;;;;;;5.85;3.17;;;14.80;99.90;;;13.45;100.00;99648.28;10300702;28;97917;-84
2023/10/24 08:08:39;;;;;;;5.45;3.38;;;14.90;99.90;;;13.51;100.00;99639.50;10319180;28;96613;-85
2023/10/24 08:13:43;;;;;;;5.22;3.38;;;14.90;99.90;;;13.47;100.00;99637.41;10292001;28;98646;-84
2023/10/24 08:18:47;;;;;;;5.90;3.72;;;15.00;99.90;;;13.49;100.00;99630.84;10341188;28;97249;-84
2023/10/24 08:23:51;;;;;;;6.28;3.55;;;15.00;99.90;;;13.57;100.00;99649.38;10329362;28;98299;-85
2023/10/24 08:28:54;;;;;;;5.88;3.40;;;15.10;99.90;;;13.66;100.00;99645.47;10312198;28;96881;-84
2023/10/24 08:33:58;;;;;;;6.40;3.85;;;15.10;99.90;;;13.80;100.00;99638.34;10317411;28;98105;-84
2023/10/24 08:39:02;;;;;;;6.38;3.97;;;15.20;99.90;;;13.95;100.00;99637.31;10313771;28;96521;-84
2023/10/24 08:44:07;;;;;;;5.88;3.58;;;15.40;99.90;;;14.01;99.60;99634.66;10341713;28;96731;-84
2023/10/24 08:49:14;;;;;;;5.20;3.42;;;15.40;99.90;;;14.00;98.99;99629.53;10331069;28;98430;-84
2023/10/24 08:54:18;;;;;;;5.75;2.92;;;15.40;99.90;;;13.95;98.52;99616.78;10323317;28;96862;-84
2023/10/24 08:59:25;;;;;;;7.50;3.88;;;15.50;99.90;;;13.95;98.85;99626.66;10292344;28;97046;-84
2023/10/24 09:04:31;;;;;;;6.43;3.08;;;15.50;99.90;;;13.95;98.57;99624.78;10303728;28;97232;-84
2023/10/24 09:09:34;;;;;;;6.28;2.88;;;15.50;99.90;;;13.97;98.13;99624.59;10288334;28;96504;-84
2023/10/24 09:14:38;;;;;;;5.88;3.38;;;15.50;99.90;;;13.89;97.90;99610.41;10330613;28;96693;-83
2023/10/24 09:19:56;;;;;;;5.50;2.90;;;15.50;99.90;;;13.89;97.77;99612.25;10298859;28;96789;-82
2023/10/24 09:25:01;;;;;;;6.13;2.92;;;15.50;99.90;;;13.84;98.28;99588.81;10345206;28;96838;-83
2023/10/24 09:30:11;;;;;;;5.00;2.88;;;15.50;99.90;;;13.89;98.87;99596.22;10330340;28;98075;-82
2023/10/24 09:35:15;;;;;;;6.05;3.20;;;15.50;99.90;;;13.91;99.10;99583.47;10323488;28;98422;-82
2023/10/24 09:40:18;;;;;;;6.03;3.60;;;15.50;99.90;;;13.99;99.70;99577.97;10328107;28;97385;-82
2023/10/24 09:45:22;;;;;;;8.35;3.60;;;15.60;99.90;;;14.06;99.65;99584.13;10322464;28;98003;-82
2023/10/24 09:50:26;;;;;;;5.43;3.10;;;15.60;99.90;;;14.10;99.85;99584.53;10321267;28;97561;-81
2023/10/24 09:55:30;;;;;;;16.70;6.20;;;15.70;99.90;;;14.12;99.58;99585.97;10316872;28;97474;-81
2023/10/24 10:00:35;;;;;;;8.00;4.15;;;15.70;99.90;;;14.22;99.94;99596.25;10311601;28;97787;-82
2023/10/24 10:05:40;;;;;;;5.43;2.85;;;15.80;99.90;;;14.30;99.26;99577.31;10330127;28;97505;-81
2023/10/24 10:10:46;;;;;;;7.47;2.95;;;15.90;99.90;;;14.42;98.54;99556.13;10349005;28;97383;-81
2023/10/24 10:16:15;;;;;;;6.45;3.58;;;16.00;99.90;;;14.56;98.40;99564.97;10324124;28;98397;-81
2023/10/24 10:21:54;;;;;;;7.05;3.97;;;16.10;99.90;;;14.68;95.63;99545.41;10344988;28;96793;-81
2023/10/24 10:27:31;;;;;;;7.40;3.35;;;16.20;99.90;;;14.98;95.30;99547.56;10291508;28;96522;-81
2023/10/24 10:32:55;;;;;;;6.43;3.50;;;16.40;99.90;;;15.14;93.25;99536.38;10330802;28;97289;-81
2023/10/24 10:38:07;;;;;;;6.75;3.40;;;16.60;99.90;;;15.29;92.79;99508.50;10327089;28;97269;-81
2023/10/24 10:43:30;;;;;;;7.28;2.90;;;16.70;99.90;;;15.39;92.43;99490.94;10348296;28;96548;-81
2023/10/24 10:48:36;;;;;;;4.70;2.83;;;16.90;99.90;;;15.48;92.25;99502.22;10360501;28;97077;-81
2023/10/24 10:54:07;;;;;;;5.93;2.85;;;17.00;99.90;;;15.50;91.94;99481.38;10346748;28;97623;-81
2023/10/24 10:59:50;;;;;;;6.07;3.30;;;17.10;99.90;;;15.51;92.02;99478.50;10333069;28;96905;-81
2023/10/24 11:04:54;;;;;;;6.80;3.33;;;17.10;99.90;;;15.52;91.45;99500.72;10310637;28;96887;-81
2023/10/24 11:10:14;;;;;;;7.10;4.05;;;17.10;99.90;;;15.63;91.30;99492.03;10344640;28;96534;-81
2023/10/24 11:15:19;;;;;;;7.85;3.72;;;17.20;99.90;;;15.74;91.09;99512.75;10316626;28;98228;-81
2023/10/24 11:20:25;;;;;;;6.25;3.63;;;17.30;99.90;;;15.77;89.82;99506.97;10330434;28;97567;-81
2023/10/24 11:25:29;;;;;;;8.10;3.50;;;17.40;99.90;;;15.84;90.74;99504.25;10316611;28;97193;-81
2023/10/24 11:30:33;;;;;;;5.20;2.90;;;17.40;99.90;;;15.91;90.70;99510.34;10358490;28;97090;-81
2023/10/24 11:35:36;;;;;;;6.03;2.88;;;17.50;99.90;;;15.96;89.27;99505.16;10308685;28;97326;-81
2023/10/24 11:40:41;;;;;;;9.00;5.20;;;17.60;99.90;;;16.00;88.82;99502.84;10338540;28;97017;-82
2023/10/24 11:45:45;;;;;;;7.03;3.08;;;17.60;99.90;;;16.06;88.42;99504.66;10323932;28;98549;-81
2023/10/24 11:50:49;;;;;;;8.15;3.78;;;17.70;99.90;;;16.13;89.06;99486.63;10309112;28;97879;-81
2023/10/24 11:55:53;;;;;;;6.20;3.65;;;17.70;99.90;;;16.25;89.40;99500.97;10345467;28;97170;-81
2023/10/24 12:00:58;;;;;;;7.53;3.78;;;17.80;99.90;;;16.37;88.27;99508.25;10312004;28;97182;-81
2023/10/24 12:06:07;;;;;;;6.60;3.33;;;17.90;99.90;;;16.44;89.22;99503.69;10328768;28;97150;-81
2023/10/24 12:11:10;;;;;;;6.15;3.85;;;18.00;99.90;;;16.43;88.96;99476.00;10325350;28;97583;-81
2023/10/24 12:16:15;;;;;;;4.43;3.17;;;18.00;99.90;;;16.41;88.28;99466.56;10314039;28;97495;-81
2023/10/24 12:21:19;;;;;;;6.75;5.55;;;18.00;99.90;;;16.41;89.03;99477.28;10328882;28;97339;-81
2023/10/24 12:26:24;;;;;;;5.38;3.28;;;18.00;99.90;;;16.34;89.17;99461.28;10344972;28;97313;-82
2023/10/24 12:31:27;;;;;;;9.35;4.20;;;17.90;99.90;;;16.29;89.42;99458.44;10338456;28;97280;-82
2023/10/24 12:36:31;;;;;;;7.13;3.45;;;17.90;99.90;;;16.25;89.99;99441.16;10324877;28;97186;-82
2023/10/24 12:41:35;;;;;;;9.77;4.43;;;17.80;99.90;;;16.20;90.63;99444.53;10326290;28;98332;-82
2023/10/24 12:46:41;;;;;;;6.25;3.05;;;17.80;99.90;;;16.16;90.47;99458.59;10335799;28;97121;-82
2023/10/24 12:51:45;;;;;;;6.38;3.13;;;17.70;99.90;;;16.09;91.39;99444.44;10304686;28;96581;-81
2023/10/24 12:56:49;;;;;;;6.25;3.30;;;17.60;99.90;;;16.01;91.79;99467.81;10342114;28;97109;-82
2023/10/24 13:01:54;;;;;;;7.03;4.13;;;17.60;99.90;;;15.99;92.35;99463.69;10320248;28;97711;-81
2023/10/24 13:06:58;;;;;;;4.90;2.88;;;17.50;99.90;;;15.95;93.19;99452.63;10316933;28;96844;-82
2023/10/24 13:12:02;;;;;;;7.60;3.42;;;17.50;99.90;;;15.91;93.42;99446.06;10323506;28;98631;-82
2023/10/24 13:17:06;;;;;;;7.72;4.10;;;17.50;99.90;;;15.87;93.86;99439.50;10335876;28;96613;-82
2023/10/24 13:22:18;;;;;;;7.90;4.53;;;17.50;99.90;;;15.85;94.84;99441.56;10318241;28;96602;-82
2023/10/24 13:27:22;;;;;;;7.40;4.85;;;17.40;99.90;;;15.82;95.63;99454.59;10307310;28;98413;-82
2023/10/24 13:32:26;;;;;;;8.50;5.03;;;17.40;99.90;;;15.83;96.84;99457.03;10348784;28;96549;-82
2023/10/24 13:37:29;;;;;;;36.97;18.42;;;17.40;99.90;;;15.81;97.78;99444.91;10332687;28;96806;-82
2023/10/24 13:42:33;;;;;;;17.95;10.88;;;17.40;99.90;;;15.79;98.42;99432.56;10313962;28;96907;-82
2023/10/24 13:47:36;;;;;;;9.30;5.70;;;17.40;99.90;;;15.78;98.84;99432.78;10316594;28;97075;-82
2023/10/24 13:52:41;;;;;;;44.03;20.42;;;17.40;99.90;;;15.74;99.49;99427.03;10335068;28;97533;-82
2023/10/24 13:57:46;;;;;;;30.30;15.30;;;17.30;99.90;;;15.75;99.70;99436.72;10328598;28;97670;-82
2023/10/24 14:02:51;;;;;;;19.52;9.00;;;17.30;99.90;;;15.70;100.00;99408.94;10316644;28;96787;-82
2023/10/24 14:07:54;;;;;;;13.32;7.60;;;17.30;99.90;;;15.64;100.00;99377.69;10328926;28;98170;-82
2023/10/24 14:12:58;;;;;;;15.45;7.63;;;17.20;99.90;;;15.56;100.00;99377.94;10327568;28;97387;-82
2023/10/24 14:18:03;;;;;;;13.38;6.22;;;17.10;99.90;;;15.49;100.00;99376.16;10330254;28;96719;-82
2023/10/24 14:23:07;;;;;;;8.93;5.70;;;17.00;99.90;;;15.44;100.00;99369.81;10328596;28;97565;-82
2023/10/24 14:28:10;;;;;;;10.13;7.10;;;16.90;99.90;;;15.34;100.00;99353.41;10315130;28;97194;-83
2023/10/24 14:33:14;;;;;;;11.82;5.93;;;16.90;99.90;;;15.21;100.00;99314.22;10349810;28;98242;-83
2023/10/24 14:38:18;;;;;;;17.67;6.20;;;16.70;99.90;;;15.14;100.00;99274.13;10307774;28;96941;-83
2023/10/24 14:43:22;;;;;;;14.40;9.55;;;16.60;99.90;;;15.06;100.00;99282.44;10314203;28;96790;-83
2023/10/24 14:48:25;;;;;;;18.40;9.68;;;16.60;99.90;;;14.97;100.00;99265.00;10322312;28;96587;-82
2023/10/24 14:53:29;;;;;;;42.75;17.63;;;16.50;99.90;;;14.90;100.00;99258.91;10336533;28;97697;-82
2023/10/24 14:58:33;;;;;;;24.67;13.95;;;16.40;99.90;;;14.84;100.00;99222.34;10329802;28;98584;-83
2023/10/24 15:03:37;;;;;;;33.47;17.98;;;16.30;99.90;;;14.75;100.00;99202.25;10321360;28;96578;-82
2023/10/24 15:08:43;;;;;;;34.42;16.35;;;16.30;99.90;;;14.68;100.00;99203.13;10336158;28;97919;-83
2023/10/24 15:13:47;;;;;;;42.13;20.92;;;16.20;99.90;;;14.61;100.00;99210.38;10308897;28;96979;-82
2023/10/24 15:18:52;;;;;;;17.08;11.60;;;16.10;99.90;;;14.48;100.00;99268.47;10314051;28;96577;-82
2023/10/24 15:23:56;;;;;;;11.40;7.28;;;16.00;99.90;;;14.33;100.00;99276.75;10298538;28;97131;-82
2023/10/24 15:29:00;;;;;;;57.97;29.52;;;15.80;99.90;;;14.26;100.00;99262.63;10352166;28;96898;-82
2023/10/24 15:34:04;;;;;;;41.35;21.77;;;15.70;99.90;;;14.22;100.00;99245.38;10320869;28;97349;-82
2023/10/24 15:39:08;;;;;;;37.65;17.55;;;15.70;99.90;;;14.21;100.00;99233.84;10310921;28;98182;-81
2023/10/24 15:44:13;;;;;;;22.75;10.93;;;15.70;99.90;;;14.23;100.00;99228.31;10302478;28;96807;-82
2023/10/24 15:49:17;;;;;;;26.33;12.35;;;15.70;99.90;;;14.21;100.00;99223.16;10325940;28;98467;-82
2023/10/24 15:54:21;;;;;;;15.02;7.75;;;15.70;99.90;;;14.19;100.00;99215.38;10294119;28;96890;-81
2023/10/24 15:59:25;;;;;;;15.98;7.93;;;15.70;99.90;;;14.14;100.00;99204.50;10330974;28;96551;-83
2023/10/24 16:04:29;;;;;;;22.30;11.70;;;15.60;99.90;;;14.14;100.00;99211.72;10317202;28;96715;-84
2023/10/24 16:09:33;;;;;;;12.50;6.78;;;15.70;99.90;;;14.13;100.00;99213.56;10308862;28;97192;-85
2023/10/24 16:14:36;;;;;;;10.50;5.80;;;15.60;99.90;;;14.09;100.00;99233.75;10319028;28;99238;-84
2023/10/24 16:19:43;;;;;;;8.60;5.95;;;15.60;99.90;;;14.08;100.00;99205.38;10327225;28;97301;-84
2023/10/24 16:24:47;;;;;;;9.73;6.22;;;15.60;99.90;;;14.09;100.00;99190.16;10303709;28;96620;-84
2023/10/24 16:29:50;;;;;;;9.23;5.38;;;15.60;99.90;;;14.08;100.00;99184.00;10324065;28;98785;-82
2023/10/24 16:34:55;;;;;;;12.63;6.53;;;15.60;99.90;;;14.10;100.00;99187.28;10311550;28;97472;-82
2023/10/24 16:39:58;;;;;;;17.60;9.65;;;15.60;99.90;;;14.06;100.00;99170.06;10320159;28;96607;-82
2023/10/24 16:45:02;;;;;;;29.98;18.83;;;15.50;99.90;;;14.05;100.00;99159.59;10306625;28;96612;-82
2023/10/24 16:50:06;;;;;;;38.38;22.73;;;15.50;99.90;;;14.01;100.00;99145.84;10307778;28;97700;-82
2023/10/24 16:55:10;;;;;;;45.72;27.00;;;15.50;99.90;;;14.00;100.00;99136.19;10338050;28;96612;-82
2023/10/24 17:00:16;;;;;;;29.85;18.98;;;15.50;99.90;;;14.02;100.00;99146.66;10324809;28;97495;-83
2023/10/24 17:05:20;;;;;;;19.40;12.52;;;15.50;99.90;;;13.99;100.00;99141.75;10311879;28;96732;-83
2023/10/24 17:10:27;;;;;;;17.73;9.32;;;15.50;99.90;;;13.96;100.00;99142.97;10319277;28;96917;-83
2023/10/24 17:15:31;;;;;;;17.42;11.07;;;15.40;99.90;;;13.96;100.00;99142.97;10329356;28;98428;-85
2023/10/24 17:20:35;;;;;;;12.93;8.52;;;15.40;99.90;;;13.95;100.00;99127.19;10306279;28;98017;-83
2023/10/24 17:25:42;;;;;;;13.77;7.93;;;15.40;99.90;;;13.90;100.00;99127.81;10350969;28;97239;-84
2023/10/24 17:30:46;;;;;;;16.50;8.80;;;15.40;99.90;;;13.88;100.00;99125.38;10353897;28;98699;-83
2023/10/24 17:35:50;;;;;;;13.88;7.95;;;15.30;99.90;;;13.89;100.00;99115.50;10320169;28;96577;-83
2023/10/24 17:40:54;;;;;;;10.65;7.13;;;15.30;99.90;;;13.86;100.00;99110.63;10342738;28;96635;-82
2023/10/24 17:46:08;;;;;;;12.55;5.80;;;15.30;99.90;;;13.85;100.00;99104.47;10326904;28;96654;-82
2023/10/24 17:51:12;;;;;;;11.52;6.30;;;15.30;99.90;;;13.85;100.00;99088.44;10326493;28;96805;-83
2023/10/24 17:56:17;;;;;;;10.10;6.38;;;15.30;99.90;;;13.86;100.00;99078.56;10326454;28;96752;-83
2023/10/24 18:01:23;;;;;;;16.80;9.25;;;15.30;99.90;;;13.85;100.00;99088.44;10292389;28;96678;-84
2023/10/24 18:06:27;;;;;;;17.00;9.05;;;15.30;99.90;;;13.84;100.00;99077.94;10321788;28;97354;-84
2023/10/24 18:11:31;;;;;;;32.42;14.00;;;15.30;99.90;;;13.82;100.00;99083.50;10307992;28;96897;-84
2023/10/24 18:16:34;;;;;;;29.30;13.90;;;15.30;99.90;;;13.80;100.00;99076.75;10307011;28;98045;-84
2023/10/24 18:21:47;;;;;;;32.08;12.80;;;15.20;99.90;;;13.82;100.00;99058.66;10300267;28;96652;-84
2023/10/24 18:26:50;;;;;;;35.22;14.27;;;15.20;99.90;;;13.81;100.00;99057.84;10316194;28;96537;-85
2023/10/24 18:31:54;;;;;;;21.33;11.18;;;15.20;99.90;;;13.82;100.00;99056.00;10317371;28;97664;-85
2023/10/24 18:36:58;;;;;;;18.70;8.80;;;15.20;99.90;;;13.80;100.00;99039.38;10300835;28;97458;-85
2023/10/24 18:42:02;;;;;;;18.25;9.70;;;15.20;99.90;;;13.78;100.00;99022.75;10293394;28;96791;-85
2023/10/24 18:47:07;;;;;;;20.10;10.20;;;15.20;99.90;;;13.79;100.00;99013.69;10338732;28;97266;-85
2023/10/24 18:52:14;;;;;;;14.25;8.38;;;15.20;99.90;;;13.78;100.00;98996.84;10317009;28;98212;-85
2023/10/24 18:57:21;;;;;;;15.10;8.02;;;15.20;99.90;;;13.81;100.00;98991.09;10308781;28;96670;-85
2023/10/24 19:02:30;;;;;;;15.95;8.07;;;15.20;99.90;;;13.82;100.00;98991.91;10323458;28;97563;-85
2023/10/24 19:07:35;;;;;;;15.50;8.20;;;15.30;99.90;;;13.82;100.00;98992.72;10296357;28;97468;-85
2023/10/24 19:12:41;;;;;;;12.02;7.05;;;15.20;99.90;;;13.82;100.00;98981.22;10315309;28;96821;-85
2023/10/24 19:17:47;;;;;;;13.02;6.55;;;15.20;99.90;;;13.82;100.00;98971.34;10307944;27;97407;-85
2023/10/24 19:22:51;;;;;;;9.23;6.53;;;15.30;99.90;;;13.82;100.00;98959.88;10324151;28;96774;-86
2023/10/24 19:27:55;;;;;;;13.63;7.20;;;15.20;99.90;;;13.80;100.00;98948.59;10304978;28;97533;-85
2023/10/24 19:33:00;;;;;;;11.52;6.72;;;15.20;99.90;;;13.78;100.00;98942.63;10297764;28;97516;-85
2023/10/24 19:38:08;;;;;;;11.27;6.57;;;15.20;99.90;;;13.76;100.00;98932.19;10308768;28;96680;-85
2023/10/24 19:43:21;;;;;;;10.32;6.35;;;15.20;99.90;;;13.76;100.00;98910.00;10290112;28;98402;-85
2023/10/24 19:48:26;;;;;;;16.50;6.70;;;15.20;99.90;;;13.72;100.00;98904.28;10289274;28;96832;-85
2023/10/24 19:53:32;;;;;;;11.90;7.28;;;15.20;99.90;;;13.71;100.00;98891.97;10342176;28;96946;-85
2023/10/24 19:58:38;;;;;;;11.15;5.97;;;15.10;99.90;;;13.70;100.00;98889.53;10312864;28;96891;-85
2023/10/24 20:03:43;;;;;;;13.43;7.68;;;15.10;99.90;;;13.68;100.00;98889.75;10304196;28;96795;-85
2023/10/24 20:08:47;;;;;;;14.68;8.18;;;15.10;99.90;;;13.67;100.00;98896.09;10318300;28;96941;-85
2023/10/24 20:13:51;;;;;;;13.80;7.93;;;15.10;99.90;;;13.66;100.00;98878.47;10310758;28;96665;-85
2023/10/24 20:18:55;;;;;;;12.00;6.90;;;15.10;99.90;;;13.67;100.00;98874.75;10321856;28;98022;-85
2023/10/24 20:24:00;;;;;;;9.73;6.38;;;15.10;99.90;;;13.65;100.00;98868.81;10320122;28;96663;-85
2023/10/24 20:29:05;;;;;;;12.10;6.23;;;15.10;99.90;;;13.62;100.00;98859.41;10325709;28;96795;-84
2023/10/24 20:34:14;;;;;;;8.43;5.28;;;15.10;99.90;;;13.62;100.00;98818.56;10327793;28;96779;-85
2023/10/24 20:39:18;;;;;;;12.80;6.83;;;15.10;99.90;;;13.62;100.00;98830.06;10313582;28;96693;-84
2023/10/24 20:44:21;;;;;;;8.40;5.65;;;15.10;99.90;;;13.64;100.00;98840.50;10301758;28;96756;-85
2023/10/24 20:49:25;;;;;;;13.13;6.40;;;15.10;99.90;;;13.66;100.00;98843.75;10280666;28;96958;-85
2023/10/24 20:54:29;;;;;;;9.63;6.18;;;15.10;99.90;;;13.68;100.00;98847.06;10302277;28;96715;-84